sensor_id;sensor_type;location;lat;lon;timestamp;P1;durP1;ratioP1;P2;durP2;ratioP2
79670;SDS011;69137;50.878;8.050;2024-01-30T00:00:53;18.97;;;11.70;;
79670;SDS011;69137;50.878;8.050;2024-01-30T00:03:18;20.30;;;11.13;;
79670;SDS011;69137;50.878;8.050;2024-01-30T00:05:43;24.80;;;12.00;;
79670;SDS011;69137;50.878;8.050;2024-01-30T00:08:09;21.97;;;12.50;;
79670;SDS011;69137;50.878;8.050;2024-01-30T00:10:34;28.60;;;14.65;;
79670;SDS011;69137;50.878;8.050;2024-01-30T00:13:01;34.53;;;17.42;;
79670;SDS011;69137;50.878;8.050;2024-01-30T00:15:27;33.22;;;16.88;;
79670;SDS011;69137;50.878;8.050;2024-01-30T00:17:52;32.53;;;17.63;;
79670;SDS011;69137;50.878;8.050;2024-01-30T00:20:18;37.07;;;17.73;;
79670;SDS011;69137;50.878;8.050;2024-01-30T00:22:43;32.70;;;17.05;;
79670;SDS011;69137;50.878;8.050;2024-01-30T00:25:08;32.40;;;16.47;;
79670;SDS011;69137;50.878;8.050;2024-01-30T00:27:34;31.45;;;18.13;;
79670;SDS011;69137;50.878;8.050;2024-01-30T00:29:59;30.10;;;18.50;;
79670;SDS011;69137;50.878;8.050;2024-01-30T00:32:25;32.90;;;15.30;;
79670;SDS011;69137;50.878;8.050;2024-01-30T00:34:50;31.90;;;15.90;;
79670;SDS011;69137;50.878;8.050;2024-01-30T00:37:16;37.72;;;17.48;;
79670;SDS011;69137;50.878;8.050;2024-01-30T00:39:41;46.00;;;18.48;;
79670;SDS011;69137;50.878;8.050;2024-01-30T00:42:06;39.63;;;17.03;;
79670;SDS011;69137;50.878;8.050;2024-01-30T00:44:34;33.07;;;15.57;;
79670;SDS011;69137;50.878;8.050;2024-01-30T00:47:02;30.92;;;14.73;;
79670;SDS011;69137;50.878;8.050;2024-01-30T00:49:28;30.83;;;13.07;;
79670;SDS011;69137;50.878;8.050;2024-01-30T00:51:53;28.17;;;13.95;;
79670;SDS011;69137;50.878;8.050;2024-01-30T00:54:18;25.13;;;13.67;;
79670;SDS011;69137;50.878;8.050;2024-01-30T00:56:43;32.67;;;13.67;;
79670;SDS011;69137;50.878;8.050;2024-01-30T00:59:09;22.97;;;12.33;;
79670;SDS011;69137;50.878;8.050;2024-01-30T01:01:36;27.25;;;13.00;;
79670;SDS011;69137;50.878;8.050;2024-01-30T01:04:01;22.80;;;12.47;;
79670;SDS011;69137;50.878;8.050;2024-01-30T01:06:27;21.13;;;11.48;;
79670;SDS011;69137;50.878;8.050;2024-01-30T01:08:52;20.53;;;11.07;;
79670;SDS011;69137;50.878;8.050;2024-01-30T01:11:17;20.97;;;11.53;;
79670;SDS011;69137;50.878;8.050;2024-01-30T01:13:43;23.83;;;11.50;;
79670;SDS011;69137;50.878;8.050;2024-01-30T01:16:08;19.13;;;11.53;;
79670;SDS011;69137;50.878;8.050;2024-01-30T01:18:33;23.50;;;11.77;;
79670;SDS011;69137;50.878;8.050;2024-01-30T01:20:58;17.73;;;10.50;;
79670;SDS011;69137;50.878;8.050;2024-01-30T01:23:24;19.20;;;10.88;;
79670;SDS011;69137;50.878;8.050;2024-01-30T01:25:49;20.57;;;10.83;;
79670;SDS011;69137;50.878;8.050;2024-01-30T01:28:14;17.30;;;10.50;;
79670;SDS011;69137;50.878;8.050;2024-01-30T01:30:40;16.95;;;11.20;;
79670;SDS011;69137;50.878;8.050;2024-01-30T01:33:05;19.93;;;10.13;;
79670;SDS011;69137;50.878;8.050;2024-01-30T01:35:31;19.63;;;10.57;;
79670;SDS011;69137;50.878;8.050;2024-01-30T01:37:57;19.77;;;10.98;;
79670;SDS011;69137;50.878;8.050;2024-01-30T01:40:24;17.00;;;9.75;;
79670;SDS011;69137;50.878;8.050;2024-01-30T01:42:51;17.13;;;10.65;;
79670;SDS011;69137;50.878;8.050;2024-01-30T01:45:17;15.18;;;9.57;;
79670;SDS011;69137;50.878;8.050;2024-01-30T01:47:43;20.45;;;10.20;;
79670;SDS011;69137;50.878;8.050;2024-01-30T01:50:11;18.60;;;10.13;;
79670;SDS011;69137;50.878;8.050;2024-01-30T01:52:38;16.83;;;9.45;;
79670;SDS011;69137;50.878;8.050;2024-01-30T01:55:05;16.23;;;9.65;;
79670;SDS011;69137;50.878;8.050;2024-01-30T01:57:31;16.83;;;9.45;;
79670;SDS011;69137;50.878;8.050;2024-01-30T01:59:59;17.95;;;10.52;;
79670;SDS011;69137;50.878;8.050;2024-01-30T02:02:26;17.80;;;9.20;;
79670;SDS011;69137;50.878;8.050;2024-01-30T02:04:55;16.38;;;9.50;;
79670;SDS011;69137;50.878;8.050;2024-01-30T02:07:20;23.40;;;10.20;;
79670;SDS011;69137;50.878;8.050;2024-01-30T02:09:45;16.63;;;9.35;;
79670;SDS011;69137;50.878;8.050;2024-01-30T02:12:11;19.13;;;10.50;;
79670;SDS011;69137;50.878;8.050;2024-01-30T02:14:45;16.87;;;9.23;;
79670;SDS011;69137;50.878;8.050;2024-01-30T02:17:12;19.08;;;8.90;;
79670;SDS011;69137;50.878;8.050;2024-01-30T02:19:37;19.73;;;10.52;;
79670;SDS011;69137;50.878;8.050;2024-01-30T02:22:03;14.73;;;9.63;;
79670;SDS011;69137;50.878;8.050;2024-01-30T02:24:29;17.63;;;9.63;;
79670;SDS011;69137;50.878;8.050;2024-01-30T02:26:54;20.67;;;11.57;;
79670;SDS011;69137;50.878;8.050;2024-01-30T02:29:19;15.87;;;8.97;;
79670;SDS011;69137;50.878;8.050;2024-01-30T02:31:45;14.80;;;9.77;;
79670;SDS011;69137;50.878;8.050;2024-01-30T02:34:11;23.77;;;11.23;;
79670;SDS011;69137;50.878;8.050;2024-01-30T02:36:36;16.40;;;9.63;;
79670;SDS011;69137;50.878;8.050;2024-01-30T02:39:01;15.40;;;9.50;;
79670;SDS011;69137;50.878;8.050;2024-01-30T02:41:27;17.73;;;10.60;;
79670;SDS011;69137;50.878;8.050;2024-01-30T02:43:53;16.37;;;9.07;;
79670;SDS011;69137;50.878;8.050;2024-01-30T02:46:18;27.80;;;11.37;;
79670;SDS011;69137;50.878;8.050;2024-01-30T02:48:43;21.05;;;11.63;;
79670;SDS011;69137;50.878;8.050;2024-01-30T02:51:09;23.87;;;10.93;;
79670;SDS011;69137;50.878;8.050;2024-01-30T02:53:34;21.47;;;12.20;;
79670;SDS011;69137;50.878;8.050;2024-01-30T02:55:59;19.73;;;11.63;;
79670;SDS011;69137;50.878;8.050;2024-01-30T02:58:24;15.43;;;10.03;;
79670;SDS011;69137;50.878;8.050;2024-01-30T03:00:50;22.17;;;11.77;;
79670;SDS011;69137;50.878;8.050;2024-01-30T03:03:15;24.03;;;11.97;;
79670;SDS011;69137;50.878;8.050;2024-01-30T03:05:40;15.80;;;10.27;;
79670;SDS011;69137;50.878;8.050;2024-01-30T03:08:06;19.42;;;11.02;;
79670;SDS011;69137;50.878;8.050;2024-01-30T03:10:31;17.47;;;9.90;;
79670;SDS011;69137;50.878;8.050;2024-01-30T03:12:56;17.07;;;9.80;;
79670;SDS011;69137;50.878;8.050;2024-01-30T03:15:21;22.40;;;11.83;;
79670;SDS011;69137;50.878;8.050;2024-01-30T03:17:47;21.70;;;11.25;;
79670;SDS011;69137;50.878;8.050;2024-01-30T03:20:13;25.43;;;10.60;;
79670;SDS011;69137;50.878;8.050;2024-01-30T03:22:38;18.20;;;10.53;;
79670;SDS011;69137;50.878;8.050;2024-01-30T03:25:03;24.83;;;11.37;;
79670;SDS011;69137;50.878;8.050;2024-01-30T03:27:29;17.42;;;9.95;;
79670;SDS011;69137;50.878;8.050;2024-01-30T03:29:54;16.13;;;9.07;;
79670;SDS011;69137;50.878;8.050;2024-01-30T03:32:19;15.83;;;9.27;;
79670;SDS011;69137;50.878;8.050;2024-01-30T03:34:45;20.37;;;10.43;;
79670;SDS011;69137;50.878;8.050;2024-01-30T03:37:10;19.07;;;9.73;;
79670;SDS011;69137;50.878;8.050;2024-01-30T03:39:35;17.90;;;10.27;;
79670;SDS011;69137;50.878;8.050;2024-01-30T03:42:01;20.85;;;10.90;;
79670;SDS011;69137;50.878;8.050;2024-01-30T03:44:27;18.52;;;11.07;;
79670;SDS011;69137;50.878;8.050;2024-01-30T03:46:52;19.70;;;11.03;;
79670;SDS011;69137;50.878;8.050;2024-01-30T03:49:17;19.30;;;11.93;;
79670;SDS011;69137;50.878;8.050;2024-01-30T03:51:42;17.80;;;10.20;;
79670;SDS011;69137;50.878;8.050;2024-01-30T03:54:08;25.73;;;11.27;;
79670;SDS011;69137;50.878;8.050;2024-01-30T03:56:33;20.80;;;10.33;;
79670;SDS011;69137;50.878;8.050;2024-01-30T03:58:58;19.60;;;10.33;;
79670;SDS011;69137;50.878;8.050;2024-01-30T04:01:25;19.70;;;9.73;;
79670;SDS011;69137;50.878;8.050;2024-01-30T04:03:53;17.35;;;9.90;;
79670;SDS011;69137;50.878;8.050;2024-01-30T04:06:19;19.87;;;10.43;;
79670;SDS011;69137;50.878;8.050;2024-01-30T04:08:44;17.95;;;9.93;;
79670;SDS011;69137;50.878;8.050;2024-01-30T04:11:09;21.73;;;9.77;;
79670;SDS011;69137;50.878;8.050;2024-01-30T04:13:35;17.70;;;8.90;;
79670;SDS011;69137;50.878;8.050;2024-01-30T04:16:00;19.48;;;9.30;;
79670;SDS011;69137;50.878;8.050;2024-01-30T04:18:27;19.48;;;9.88;;
79670;SDS011;69137;50.878;8.050;2024-01-30T04:20:52;16.80;;;9.57;;
79670;SDS011;69137;50.878;8.050;2024-01-30T04:23:18;15.03;;;8.73;;
79670;SDS011;69137;50.878;8.050;2024-01-30T04:25:43;16.40;;;8.90;;
79670;SDS011;69137;50.878;8.050;2024-01-30T04:28:09;19.00;;;9.47;;
79670;SDS011;69137;50.878;8.050;2024-01-30T04:30:36;16.27;;;10.00;;
79670;SDS011;69137;50.878;8.050;2024-01-30T04:33:02;13.30;;;7.68;;
79670;SDS011;69137;50.878;8.050;2024-01-30T04:35:27;19.90;;;10.20;;
79670;SDS011;69137;50.878;8.050;2024-01-30T04:37:53;14.40;;;9.33;;
79670;SDS011;69137;50.878;8.050;2024-01-30T04:40:18;14.17;;;8.27;;
79670;SDS011;69137;50.878;8.050;2024-01-30T04:42:44;16.05;;;9.25;;
79670;SDS011;69137;50.878;8.050;2024-01-30T04:45:10;21.30;;;9.47;;
79670;SDS011;69137;50.878;8.050;2024-01-30T04:47:35;16.90;;;10.17;;
79670;SDS011;69137;50.878;8.050;2024-01-30T04:50:01;16.23;;;9.23;;
79670;SDS011;69137;50.878;8.050;2024-01-30T04:52:27;19.00;;;8.70;;
79670;SDS011;69137;50.878;8.050;2024-01-30T04:54:52;18.10;;;9.67;;
79670;SDS011;69137;50.878;8.050;2024-01-30T04:57:17;16.07;;;8.30;;
79670;SDS011;69137;50.878;8.050;2024-01-30T04:59:43;14.80;;;9.37;;
79670;SDS011;69137;50.878;8.050;2024-01-30T05:02:08;17.13;;;10.43;;
79670;SDS011;69137;50.878;8.050;2024-01-30T05:04:33;17.67;;;9.37;;
79670;SDS011;69137;50.878;8.050;2024-01-30T05:06:58;16.48;;;9.38;;
79670;SDS011;69137;50.878;8.050;2024-01-30T05:09:24;14.93;;;8.70;;
79670;SDS011;69137;50.878;8.050;2024-01-30T05:11:49;14.07;;;8.83;;
79670;SDS011;69137;50.878;8.050;2024-01-30T05:14:14;14.97;;;8.77;;
79670;SDS011;69137;50.878;8.050;2024-01-30T05:16:40;13.27;;;8.77;;
79670;SDS011;69137;50.878;8.050;2024-01-30T05:19:06;14.55;;;8.65;;
79670;SDS011;69137;50.878;8.050;2024-01-30T05:21:31;15.50;;;9.50;;
79670;SDS011;69137;50.878;8.050;2024-01-30T05:23:56;14.03;;;9.07;;
79670;SDS011;69137;50.878;8.050;2024-01-30T05:26:22;15.63;;;9.20;;
79670;SDS011;69137;50.878;8.050;2024-01-30T05:28:48;16.38;;;10.77;;
79670;SDS011;69137;50.878;8.050;2024-01-30T05:31:13;17.20;;;9.32;;
79670;SDS011;69137;50.878;8.050;2024-01-30T05:33:39;14.95;;;8.43;;
79670;SDS011;69137;50.878;8.050;2024-01-30T05:36:05;14.93;;;8.30;;
79670;SDS011;69137;50.878;8.050;2024-01-30T05:38:31;13.88;;;8.13;;
79670;SDS011;69137;50.878;8.050;2024-01-30T05:40:57;12.32;;;8.73;;
79670;SDS011;69137;50.878;8.050;2024-01-30T05:43:25;16.15;;;8.55;;
79670;SDS011;69137;50.878;8.050;2024-01-30T05:45:51;13.77;;;8.60;;
79670;SDS011;69137;50.878;8.050;2024-01-30T05:48:17;14.32;;;8.30;;
79670;SDS011;69137;50.878;8.050;2024-01-30T05:50:42;18.92;;;9.02;;
79670;SDS011;69137;50.878;8.050;2024-01-30T05:53:08;18.57;;;8.90;;
79670;SDS011;69137;50.878;8.050;2024-01-30T05:55:33;14.30;;;9.27;;
79670;SDS011;69137;50.878;8.050;2024-01-30T05:57:58;13.50;;;8.93;;
79670;SDS011;69137;50.878;8.050;2024-01-30T06:00:23;16.60;;;8.30;;
79670;SDS011;69137;50.878;8.050;2024-01-30T06:02:49;14.83;;;7.70;;
79670;SDS011;69137;50.878;8.050;2024-01-30T06:05:14;13.73;;;9.73;;
79670;SDS011;69137;50.878;8.050;2024-01-30T06:07:39;15.93;;;8.20;;
79670;SDS011;69137;50.878;8.050;2024-01-30T06:10:05;14.63;;;8.73;;
79670;SDS011;69137;50.878;8.050;2024-01-30T06:12:31;15.65;;;8.63;;
79670;SDS011;69137;50.878;8.050;2024-01-30T06:14:57;23.20;;;11.87;;
79670;SDS011;69137;50.878;8.050;2024-01-30T06:17:22;24.30;;;14.00;;
79670;SDS011;69137;50.878;8.050;2024-01-30T06:19:48;20.95;;;13.70;;
79670;SDS011;69137;50.878;8.050;2024-01-30T06:22:13;25.92;;;12.45;;
79670;SDS011;69137;50.878;8.050;2024-01-30T06:24:39;22.42;;;12.82;;
79670;SDS011;69137;50.878;8.050;2024-01-30T06:27:04;21.83;;;11.33;;
79670;SDS011;69137;50.878;8.050;2024-01-30T06:29:29;16.33;;;10.33;;
79670;SDS011;69137;50.878;8.050;2024-01-30T06:31:55;16.43;;;9.97;;
79670;SDS011;69137;50.878;8.050;2024-01-30T06:34:21;19.93;;;9.70;;
79670;SDS011;69137;50.878;8.050;2024-01-30T06:36:46;14.60;;;9.50;;
79670;SDS011;69137;50.878;8.050;2024-01-30T06:39:11;16.03;;;9.57;;
79670;SDS011;69137;50.878;8.050;2024-01-30T06:41:37;19.37;;;10.20;;
79670;SDS011;69137;50.878;8.050;2024-01-30T06:44:02;19.90;;;10.23;;
79670;SDS011;69137;50.878;8.050;2024-01-30T06:46:29;20.48;;;10.27;;
79670;SDS011;69137;50.878;8.050;2024-01-30T06:48:54;20.38;;;9.95;;
79670;SDS011;69137;50.878;8.050;2024-01-30T06:51:19;20.20;;;10.17;;
79670;SDS011;69137;50.878;8.050;2024-01-30T06:53:45;21.33;;;9.30;;
79670;SDS011;69137;50.878;8.050;2024-01-30T06:56:10;17.07;;;9.90;;
79670;SDS011;69137;50.878;8.050;2024-01-30T06:58:35;21.50;;;10.05;;
79670;SDS011;69137;50.878;8.050;2024-01-30T07:01:01;26.30;;;12.73;;
79670;SDS011;69137;50.878;8.050;2024-01-30T07:03:27;26.83;;;12.73;;
79670;SDS011;69137;50.878;8.050;2024-01-30T07:05:52;22.50;;;11.80;;
79670;SDS011;69137;50.878;8.050;2024-01-30T07:08:17;23.13;;;13.37;;
79670;SDS011;69137;50.878;8.050;2024-01-30T07:10:43;28.73;;;12.00;;
79670;SDS011;69137;50.878;8.050;2024-01-30T07:13:09;23.67;;;11.77;;
79670;SDS011;69137;50.878;8.050;2024-01-30T07:15:35;20.38;;;11.27;;
79670;SDS011;69137;50.878;8.050;2024-01-30T07:18:01;24.95;;;12.18;;
79670;SDS011;69137;50.878;8.050;2024-01-30T07:20:27;28.33;;;12.60;;
79670;SDS011;69137;50.878;8.050;2024-01-30T07:22:52;25.27;;;11.17;;
79670;SDS011;69137;50.878;8.050;2024-01-30T07:25:17;21.20;;;12.20;;
79670;SDS011;69137;50.878;8.050;2024-01-30T07:27:43;25.07;;;11.13;;
79670;SDS011;69137;50.878;8.050;2024-01-30T07:30:08;23.47;;;12.60;;
79670;SDS011;69137;50.878;8.050;2024-01-30T07:32:33;28.15;;;12.50;;
79670;SDS011;69137;50.878;8.050;2024-01-30T07:34:59;23.87;;;10.93;;
79670;SDS011;69137;50.878;8.050;2024-01-30T07:37:24;23.33;;;11.90;;
79670;SDS011;69137;50.878;8.050;2024-01-30T07:39:49;22.63;;;12.87;;
79670;SDS011;69137;50.878;8.050;2024-01-30T07:42:15;20.50;;;12.20;;
79670;SDS011;69137;50.878;8.050;2024-01-30T07:44:40;27.67;;;12.30;;
79670;SDS011;69137;50.878;8.050;2024-01-30T07:47:05;20.67;;;11.03;;
79670;SDS011;69137;50.878;8.050;2024-01-30T07:49:30;27.30;;;13.07;;
79670;SDS011;69137;50.878;8.050;2024-01-30T07:51:56;20.23;;;11.23;;
79670;SDS011;69137;50.878;8.050;2024-01-30T07:54:21;19.23;;;11.27;;
79670;SDS011;69137;50.878;8.050;2024-01-30T07:56:46;21.48;;;11.60;;
79670;SDS011;69137;50.878;8.050;2024-01-30T07:59:12;23.13;;;11.03;;
79670;SDS011;69137;50.878;8.050;2024-01-30T08:01:37;24.83;;;11.57;;
79670;SDS011;69137;50.878;8.050;2024-01-30T08:04:03;27.85;;;12.38;;
79670;SDS011;69137;50.878;8.050;2024-01-30T08:06:28;27.10;;;12.93;;
79670;SDS011;69137;50.878;8.050;2024-01-30T08:08:54;25.43;;;12.07;;
79670;SDS011;69137;50.878;8.050;2024-01-30T08:11:19;23.10;;;12.55;;
79670;SDS011;69137;50.878;8.050;2024-01-30T08:13:45;22.58;;;12.43;;
79670;SDS011;69137;50.878;8.050;2024-01-30T08:16:10;23.75;;;12.90;;
79670;SDS011;69137;50.878;8.050;2024-01-30T08:18:36;30.67;;;12.27;;
79670;SDS011;69137;50.878;8.050;2024-01-30T08:21:01;23.10;;;12.07;;
79670;SDS011;69137;50.878;8.050;2024-01-30T08:23:26;25.47;;;12.43;;
79670;SDS011;69137;50.878;8.050;2024-01-30T08:25:51;21.50;;;11.27;;
79670;SDS011;69137;50.878;8.050;2024-01-30T08:28:17;24.70;;;13.23;;
79670;SDS011;69137;50.878;8.050;2024-01-30T08:30:42;21.10;;;11.33;;
79670;SDS011;69137;50.878;8.050;2024-01-30T08:33:07;21.37;;;11.40;;
79670;SDS011;69137;50.878;8.050;2024-01-30T08:35:33;22.50;;;11.73;;
79670;SDS011;69137;50.878;8.050;2024-01-30T08:37:58;19.23;;;10.67;;
79670;SDS011;69137;50.878;8.050;2024-01-30T08:40:24;25.48;;;12.68;;
79670;SDS011;69137;50.878;8.050;2024-01-30T08:42:49;21.57;;;12.37;;
79670;SDS011;69137;50.878;8.050;2024-01-30T08:45:14;19.60;;;11.93;;
79670;SDS011;69137;50.878;8.050;2024-01-30T08:47:40;24.55;;;12.90;;
79670;SDS011;69137;50.878;8.050;2024-01-30T08:50:05;24.40;;;14.13;;
79670;SDS011;69137;50.878;8.050;2024-01-30T08:52:31;23.60;;;12.88;;
79670;SDS011;69137;50.878;8.050;2024-01-30T08:54:57;30.05;;;14.57;;
79670;SDS011;69137;50.878;8.050;2024-01-30T08:57:23;26.67;;;13.57;;
79670;SDS011;69137;50.878;8.050;2024-01-30T08:59:48;25.00;;;12.93;;
79670;SDS011;69137;50.878;8.050;2024-01-30T09:02:14;27.15;;;14.80;;
79670;SDS011;69137;50.878;8.050;2024-01-30T09:04:41;24.92;;;15.20;;
79670;SDS011;69137;50.878;8.050;2024-01-30T09:07:06;25.67;;;15.35;;
79670;SDS011;69137;50.878;8.050;2024-01-30T09:09:34;26.25;;;16.38;;
79670;SDS011;69137;50.878;8.050;2024-01-30T09:11:59;19.67;;;12.43;;
79670;SDS011;69137;50.878;8.050;2024-01-30T09:14:29;19.50;;;11.73;;
79670;SDS011;69137;50.878;8.050;2024-01-30T09:16:54;24.33;;;12.67;;
79670;SDS011;69137;50.878;8.050;2024-01-30T09:19:20;20.77;;;11.97;;
79670;SDS011;69137;50.878;8.050;2024-01-30T09:21:45;20.07;;;11.67;;
79670;SDS011;69137;50.878;8.050;2024-01-30T09:24:10;23.43;;;13.37;;
79670;SDS011;69137;50.878;8.050;2024-01-30T09:26:35;22.93;;;14.17;;
79670;SDS011;69137;50.878;8.050;2024-01-30T09:29:01;27.33;;;15.27;;
79670;SDS011;69137;50.878;8.050;2024-01-30T09:31:26;22.10;;;13.80;;
79670;SDS011;69137;50.878;8.050;2024-01-30T09:33:52;41.17;;;18.55;;
79670;SDS011;69137;50.878;8.050;2024-01-30T09:36:18;28.17;;;15.70;;
79670;SDS011;69137;50.878;8.050;2024-01-30T09:38:44;30.35;;;15.45;;
79670;SDS011;69137;50.878;8.050;2024-01-30T09:41:10;32.45;;;17.27;;
79670;SDS011;69137;50.878;8.050;2024-01-30T09:43:36;26.75;;;16.17;;
79670;SDS011;69137;50.878;8.050;2024-01-30T09:46:03;29.13;;;17.15;;
79670;SDS011;69137;50.878;8.050;2024-01-30T09:48:30;32.45;;;18.55;;
79670;SDS011;69137;50.878;8.050;2024-01-30T09:50:56;31.10;;;16.85;;
79670;SDS011;69137;50.878;8.050;2024-01-30T09:53:22;35.15;;;18.48;;
79670;SDS011;69137;50.878;8.050;2024-01-30T09:55:47;43.63;;;26.53;;
79670;SDS011;69137;50.878;8.050;2024-01-30T09:58:15;28.13;;;17.05;;
79670;SDS011;69137;50.878;8.050;2024-01-30T10:00:41;31.25;;;16.75;;
79670;SDS011;69137;50.878;8.050;2024-01-30T10:03:06;34.22;;;17.25;;
79670;SDS011;69137;50.878;8.050;2024-01-30T10:05:31;26.10;;;14.67;;
79670;SDS011;69137;50.878;8.050;2024-01-30T10:07:59;28.83;;;16.00;;
79670;SDS011;69137;50.878;8.050;2024-01-30T10:10:25;33.63;;;18.27;;
79670;SDS011;69137;50.878;8.050;2024-01-30T10:12:51;30.38;;;16.50;;
79670;SDS011;69137;50.878;8.050;2024-01-30T10:15:17;26.13;;;15.88;;
79670;SDS011;69137;50.878;8.050;2024-01-30T10:17:44;29.88;;;17.90;;
79670;SDS011;69137;50.878;8.050;2024-01-30T10:20:10;25.60;;;15.70;;
79670;SDS011;69137;50.878;8.050;2024-01-30T10:22:36;35.20;;;16.42;;
79670;SDS011;69137;50.878;8.050;2024-01-30T10:25:01;28.03;;;17.03;;
79670;SDS011;69137;50.878;8.050;2024-01-30T10:27:27;32.20;;;19.15;;
79670;SDS011;69137;50.878;8.050;2024-01-30T10:29:54;29.52;;;18.42;;
79670;SDS011;69137;50.878;8.050;2024-01-30T10:32:20;26.25;;;16.38;;
79670;SDS011;69137;50.878;8.050;2024-01-30T10:34:45;33.55;;;17.92;;
79670;SDS011;69137;50.878;8.050;2024-01-30T10:37:11;26.27;;;14.77;;
79670;SDS011;69137;50.878;8.050;2024-01-30T10:39:38;27.88;;;16.85;;
79670;SDS011;69137;50.878;8.050;2024-01-30T10:42:06;31.95;;;17.00;;
79670;SDS011;69137;50.878;8.050;2024-01-30T10:44:42;33.13;;;16.67;;
79670;SDS011;69137;50.878;8.050;2024-01-30T10:47:10;34.28;;;17.05;;
79670;SDS011;69137;50.878;8.050;2024-01-30T10:49:40;34.95;;;18.10;;
79670;SDS011;69137;50.878;8.050;2024-01-30T10:52:08;34.85;;;18.08;;
79670;SDS011;69137;50.878;8.050;2024-01-30T10:54:34;39.65;;;18.05;;
79670;SDS011;69137;50.878;8.050;2024-01-30T10:57:01;37.80;;;21.17;;
79670;SDS011;69137;50.878;8.050;2024-01-30T10:59:28;37.20;;;20.60;;
79670;SDS011;69137;50.878;8.050;2024-01-30T11:01:55;32.38;;;17.52;;
79670;SDS011;69137;50.878;8.050;2024-01-30T11:04:22;31.75;;;17.20;;
79670;SDS011;69137;50.878;8.050;2024-01-30T11:06:48;32.67;;;18.73;;
79670;SDS011;69137;50.878;8.050;2024-01-30T11:09:16;34.28;;;20.33;;
79670;SDS011;69137;50.878;8.050;2024-01-30T11:14:22;35.05;;;17.45;;
79670;SDS011;69137;50.878;8.050;2024-01-30T11:16:49;39.67;;;17.65;;
79670;SDS011;69137;50.878;8.050;2024-01-30T11:19:15;31.00;;;18.27;;
79670;SDS011;69137;50.878;8.050;2024-01-30T11:21:43;42.37;;;18.93;;
79670;SDS011;69137;50.878;8.050;2024-01-30T11:24:08;41.15;;;18.27;;
79670;SDS011;69137;50.878;8.050;2024-01-30T11:26:34;34.45;;;18.35;;
79670;SDS011;69137;50.878;8.050;2024-01-30T11:29:02;31.70;;;18.13;;
79670;SDS011;69137;50.878;8.050;2024-01-30T11:31:29;36.90;;;17.67;;
79670;SDS011;69137;50.878;8.050;2024-01-30T11:33:55;33.63;;;15.60;;
79670;SDS011;69137;50.878;8.050;2024-01-30T11:36:23;38.35;;;19.45;;
79670;SDS011;69137;50.878;8.050;2024-01-30T11:38:50;33.70;;;18.05;;
79670;SDS011;69137;50.878;8.050;2024-01-30T11:41:16;33.63;;;18.92;;
79670;SDS011;69137;50.878;8.050;2024-01-30T11:43:42;36.17;;;19.40;;
79670;SDS011;69137;50.878;8.050;2024-01-30T11:46:15;31.38;;;17.55;;
79670;SDS011;69137;50.878;8.050;2024-01-30T11:48:41;30.00;;;18.87;;
79670;SDS011;69137;50.878;8.050;2024-01-30T11:51:06;33.70;;;18.83;;
79670;SDS011;69137;50.878;8.050;2024-01-30T11:53:31;40.67;;;18.60;;
79670;SDS011;69137;50.878;8.050;2024-01-30T11:55:57;36.33;;;17.90;;
79670;SDS011;69137;50.878;8.050;2024-01-30T11:58:24;35.38;;;17.85;;
79670;SDS011;69137;50.878;8.050;2024-01-30T12:00:56;32.20;;;17.25;;
79670;SDS011;69137;50.878;8.050;2024-01-30T12:03:21;26.90;;;15.57;;
79670;SDS011;69137;50.878;8.050;2024-01-30T12:05:47;31.40;;;15.70;;
79670;SDS011;69137;50.878;8.050;2024-01-30T12:08:20;25.70;;;14.02;;
79670;SDS011;69137;50.878;8.050;2024-01-30T12:10:45;25.80;;;14.67;;
79670;SDS011;69137;50.878;8.050;2024-01-30T12:13:10;24.27;;;13.67;;
79670;SDS011;69137;50.878;8.050;2024-01-30T12:15:36;28.40;;;14.88;;
79670;SDS011;69137;50.878;8.050;2024-01-30T12:18:05;30.83;;;16.58;;
79670;SDS011;69137;50.878;8.050;2024-01-30T12:20:31;29.45;;;15.85;;
79670;SDS011;69137;50.878;8.050;2024-01-30T12:22:56;28.13;;;16.10;;
79670;SDS011;69137;50.878;8.050;2024-01-30T12:25:21;30.05;;;17.60;;
79670;SDS011;69137;50.878;8.050;2024-01-30T12:27:48;30.77;;;17.42;;
79670;SDS011;69137;50.878;8.050;2024-01-30T12:30:15;34.83;;;16.80;;
79670;SDS011;69137;50.878;8.050;2024-01-30T12:32:42;32.42;;;17.58;;
79670;SDS011;69137;50.878;8.050;2024-01-30T12:35:18;33.08;;;17.45;;
79670;SDS011;69137;50.878;8.050;2024-01-30T12:37:45;31.20;;;17.55;;
79670;SDS011;69137;50.878;8.050;2024-01-30T12:40:12;34.60;;;18.83;;
79670;SDS011;69137;50.878;8.050;2024-01-30T12:42:39;37.92;;;20.05;;
79670;SDS011;69137;50.878;8.050;2024-01-30T12:45:06;32.13;;;19.33;;
79670;SDS011;69137;50.878;8.050;2024-01-30T12:47:32;36.47;;;18.92;;
79670;SDS011;69137;50.878;8.050;2024-01-30T12:49:58;36.77;;;18.33;;
79670;SDS011;69137;50.878;8.050;2024-01-30T12:52:23;41.33;;;18.05;;
79670;SDS011;69137;50.878;8.050;2024-01-30T12:54:49;38.55;;;20.77;;
79670;SDS011;69137;50.878;8.050;2024-01-30T12:57:16;48.42;;;21.10;;
79670;SDS011;69137;50.878;8.050;2024-01-30T12:59:42;38.15;;;20.33;;
79670;SDS011;69137;50.878;8.050;2024-01-30T13:02:08;44.63;;;20.58;;
79670;SDS011;69137;50.878;8.050;2024-01-30T13:04:34;41.55;;;20.25;;
79670;SDS011;69137;50.878;8.050;2024-01-30T13:06:59;42.00;;;20.15;;
79670;SDS011;69137;50.878;8.050;2024-01-30T13:09:25;45.30;;;19.85;;
79670;SDS011;69137;50.878;8.050;2024-01-30T13:11:51;39.45;;;17.88;;
79670;SDS011;69137;50.878;8.050;2024-01-30T13:14:16;39.63;;;19.23;;
79670;SDS011;69137;50.878;8.050;2024-01-30T13:16:42;41.83;;;17.92;;
79670;SDS011;69137;50.878;8.050;2024-01-30T13:19:07;42.30;;;18.92;;
79670;SDS011;69137;50.878;8.050;2024-01-30T13:21:33;50.50;;;18.37;;
79670;SDS011;69137;50.878;8.050;2024-01-30T13:23:58;37.07;;;18.83;;
79670;SDS011;69137;50.878;8.050;2024-01-30T13:26:23;40.43;;;18.60;;
79670;SDS011;69137;50.878;8.050;2024-01-30T13:28:49;48.58;;;16.65;;
79670;SDS011;69137;50.878;8.050;2024-01-30T13:31:14;42.93;;;22.17;;
79670;SDS011;69137;50.878;8.050;2024-01-30T13:33:40;56.20;;;24.70;;
79670;SDS011;69137;50.878;8.050;2024-01-30T13:36:09;49.45;;;22.63;;
79670;SDS011;69137;50.878;8.050;2024-01-30T13:38:35;42.70;;;20.33;;
79670;SDS011;69137;50.878;8.050;2024-01-30T13:41:01;35.57;;;18.23;;
79670;SDS011;69137;50.878;8.050;2024-01-30T13:43:26;38.35;;;19.40;;
79670;SDS011;69137;50.878;8.050;2024-01-30T13:45:51;35.58;;;16.75;;
79670;SDS011;69137;50.878;8.050;2024-01-30T13:48:17;37.30;;;17.25;;
79670;SDS011;69137;50.878;8.050;2024-01-30T13:50:42;36.95;;;17.23;;
79670;SDS011;69137;50.878;8.050;2024-01-30T13:53:08;37.38;;;16.10;;
79670;SDS011;69137;50.878;8.050;2024-01-30T13:55:34;27.85;;;14.88;;
79670;SDS011;69137;50.878;8.050;2024-01-30T13:58:00;32.55;;;14.25;;
79670;SDS011;69137;50.878;8.050;2024-01-30T14:00:26;29.45;;;15.75;;
79670;SDS011;69137;50.878;8.050;2024-01-30T14:02:52;32.97;;;17.48;;
79670;SDS011;69137;50.878;8.050;2024-01-30T14:05:19;34.28;;;15.80;;
79670;SDS011;69137;50.878;8.050;2024-01-30T14:07:46;25.42;;;14.50;;
79670;SDS011;69137;50.878;8.050;2024-01-30T14:10:11;39.33;;;15.00;;
79670;SDS011;69137;50.878;8.050;2024-01-30T14:12:37;24.70;;;15.27;;
79670;SDS011;69137;50.878;8.050;2024-01-30T14:15:02;39.17;;;16.50;;
79670;SDS011;69137;50.878;8.050;2024-01-30T14:17:27;34.58;;;16.67;;